Time;durP1;ratioP1;P1;durP2;ratioP2;P2;SDS_P1;SDS_P2;PMS_P1;PMS_P2;Temp;Humidity;BMP_temperature;BMP_pressure;BME280_temperature;BME280_humidity;BME280_pressure;Samples;Min_cycle;Max_cycle;Signal;HPM_P1;HPM_P2
2022/10/26 00:00:09;;;;;;;;;;;21.10;97.30;21.30;99407.00;;;;345030;28;83904;-91
2022/10/26 00:00:21;;;;;;;;;;;21.10;97.40;21.20;99400.00;;;;346005;28;91458;-93
2022/10/26 00:00:33;;;;;;;;;;;21.10;97.30;21.30;99405.00;;;;347705;28;82743;-93
2022/10/26 00:00:45;;;;;;;;;;;21.10;97.40;21.20;99406.00;;;;344473;28;92474;-92
2022/10/26 00:01:03;;;;;;;;;;;21.10;97.40;21.20;99401.00;;;;346448;28;82504;-92
2022/10/26 00:01:15;;;;;;;;;;;21.10;97.30;21.20;99413.00;;;;345861;28;92087;-92
2022/10/26 00:01:28;;;;;;;;;;;21.10;97.40;21.10;99401.00;;;;343471;28;82600;-93
2022/10/26 00:01:40;;;;;;;;;;;21.10;97.70;21.10;99402.00;;;;348457;27;89187;-92
2022/10/26 00:01:52;;;;;;;;;;;21.10;97.50;21.10;99408.00;;;;346583;28;82480;-93
2022/10/26 00:02:04;;;;;;;;;;;21.00;97.60;21.10;99406.00;;;;344336;28;91890;-91
2022/10/26 00:02:16;;;;;;;;;;;21.00;97.60;21.20;99408.00;;;;347589;28;82556;-92
2022/10/26 00:02:28;;;;;;;;;;;21.00;97.70;21.10;99410.00;;;;345558;28;89115;-92
2022/10/26 00:02:40;;;;;;;;;;;21.00;98.00;21.10;99400.00;;;;347308;27;82503;-92
2022/10/26 00:02:55;;;;;;;;;;;21.00;97.80;21.10;99392.00;;;;343845;28;91016;-92
2022/10/26 00:03:06;;;;;;;;;;;21.00;98.00;21.10;99406.00;;;;344645;28;82343;-92
2022/10/26 00:03:18;;;;;;;;;;;21.00;98.00;21.10;99395.00;;;;343914;28;89008;-93
2022/10/26 00:03:30;;;;;;;;;;;21.00;98.10;21.20;99396.00;;;;347377;28;82536;-93
2022/10/26 00:03:43;;;;;;;;;;;21.00;98.40;21.10;99400.00;;;;342523;28;91339;-92
2022/10/26 00:03:55;;;;;;;;;;;21.00;98.50;21.10;99405.00;;;;344473;28;83368;-93
2022/10/26 00:04:07;;;;;;;;;;;21.00;98.50;21.00;99400.00;;;;343968;28;90657;-92
2022/10/26 00:04:18;;;;;;;;;;;21.00;98.70;21.00;99407.00;;;;342900;28;83481;-92
2022/10/26 00:04:30;;;;;;;;;;;21.00;98.80;21.00;99402.00;;;;345236;28;90325;-92
2022/10/26 00:04:42;;;;;;;;;;;21.00;98.80;21.00;99402.00;;;;347369;28;83431;-92
2022/10/26 00:04:53;;;;;;;;;;;21.00;98.90;21.00;99407.00;;;;344287;28;92828;-93
2022/10/26 00:05:05;;;;;;;;;;;21.00;99.10;21.00;99405.00;;;;344818;28;82557;-92
2022/10/26 00:05:17;;;;;;;;;;;21.00;99.20;21.00;99408.00;;;;345686;28;89866;-92
2022/10/26 00:05:31;;;;;;;;;;;20.90;99.10;20.90;99409.00;;;;344752;28;83390;-92
2022/10/26 00:05:43;;;;;;;;;;;20.90;99.20;21.00;99413.00;;;;338776;28;91239;-92
2022/10/26 00:06:02;;;;;;;;;;;20.90;99.20;20.80;99414.00;;;;340775;28;82510;-92
2022/10/26 00:06:18;;;;;;;;;;;20.90;99.40;20.80;99417.00;;;;336213;28;90560;-92
2022/10/26 00:06:30;;;;;;;;;;;20.90;99.50;20.90;99420.00;;;;344757;28;83348;-93
2022/10/26 00:06:42;;;;;;;;;;;20.90;99.40;20.90;99423.00;;;;344716;28;91593;-93
2022/10/26 00:06:53;;;;;;;;;;;20.90;99.40;20.90;99415.00;;;;347468;28;82529;-92
2022/10/26 00:07:05;;;;;;;;;;;20.90;99.40;20.80;99426.00;;;;345622;28;88955;-93
2022/10/26 00:07:17;;;;;;;;;;;20.80;99.50;20.90;99414.00;;;;346130;28;82516;-93
2022/10/26 00:07:29;;;;;;;;;;;20.80;99.40;20.80;99413.00;;;;345257;28;90902;-93
2022/10/26 00:07:41;;;;;;;;;;;20.80;99.40;20.90;99419.00;;;;346346;28;82486;-92
2022/10/26 00:07:52;;;;;;;;;;;20.80;99.40;20.90;99415.00;;;;344190;28;91380;-92
2022/10/26 00:08:05;;;;;;;;;;;20.80;99.40;20.90;99416.00;;;;346133;28;82488;-92
2022/10/26 00:08:16;;;;;;;;;;;20.80;99.30;20.90;99416.00;;;;343001;28;90332;-93
2022/10/26 00:08:28;;;;;;;;;;;20.80;99.40;20.80;99418.00;;;;344858;28;83429;-92
2022/10/26 00:08:40;;;;;;;;;;;20.80;99.40;20.80;99423.00;;;;347154;28;90734;-93
2022/10/26 00:08:52;;;;;;;;;;;20.80;99.50;20.80;99419.00;;;;344759;28;83522;-93
2022/10/26 00:09:03;;;;;;;;;;;20.80;99.50;20.90;99422.00;;;;347030;28;92782;-92
2022/10/26 00:09:15;;;;;;;;;;;20.80;99.50;20.80;99416.00;;;;346836;28;83490;-92
2022/10/26 00:09:27;;;;;;;;;;;20.80;99.50;20.90;99421.00;;;;344325;28;91037;-92
2022/10/26 00:09:38;;;;;;;;;;;20.70;99.40;20.90;99420.00;;;;345768;28;83529;-92
2022/10/26 00:09:50;;;;;;;;;;;20.80;99.50;20.80;99429.00;;;;347915;27;91721;-93
2022/10/26 00:10:02;;;;;;;;;;;20.70;99.50;20.80;99425.00;;;;344664;28;82589;-93
2022/10/26 00:10:13;;;;;;;;;;;20.70;99.40;20.80;99423.00;;;;345662;28;91599;-92
2022/10/26 00:10:25;;;;;;;;;;;20.70;99.30;20.80;99437.00;;;;344714;28;83450;-92
2022/10/26 00:10:42;;;;;;;;;;;20.70;99.30;20.80;99442.00;;;;346877;27;91993;-93
2022/10/26 00:10:56;;;;;;;;;;;20.70;99.40;20.80;99450.00;;;;346134;28;82509;-93
2022/10/26 00:11:08;;;;;;;;;;;20.70;99.40;20.80;99450.00;;;;345568;28;91103;-93
2022/10/26 00:11:20;;;;;;;;;;;20.70;99.50;20.80;99458.00;;;;348410;27;83660;-92
2022/10/26 00:11:32;;;;;;;;;;;20.70;99.40;20.80;99459.00;;;;345875;28;90770;-92
2022/10/26 00:11:44;;;;;;;;;;;20.70;99.30;20.80;99460.00;;;;344765;28;82224;-92
2022/10/26 00:11:55;;;;;;;;;;;20.70;99.30;20.80;99464.00;;;;345472;28;91385;-93
2022/10/26 00:12:07;;;;;;;;;;;20.70;99.30;20.90;99458.00;;;;347554;28;82527;-93
2022/10/26 00:12:19;;;;;;;;;;;20.70;99.30;20.80;99466.00;;;;344353;28;90486;-93
2022/10/26 00:12:30;;;;;;;;;;;20.70;99.40;20.80;99472.00;;;;346263;28;82506;-92
2022/10/26 00:12:42;;;;;;;;;;;20.70;99.10;20.80;99478.00;;;;344096;28;90688;-93
2022/10/26 00:12:54;;;;;;;;;;;20.70;99.00;20.80;99475.00;;;;341822;28;84160;-93
2022/10/26 00:13:08;;;;;;;;;;;20.70;98.90;20.80;99481.00;;;;342862;28;91534;-92
2022/10/26 00:13:20;;;;;;;;;;;20.70;98.90;20.80;99480.00;;;;344697;28;82560;-92
2022/10/26 00:13:32;;;;;;;;;;;20.70;98.80;20.80;99471.00;;;;344224;28;89166;-92
2022/10/26 00:13:44;;;;;;;;;;;20.70;98.80;20.80;99475.00;;;;344751;28;82568;-93
2022/10/26 00:13:56;;;;;;;;;;;20.70;98.80;20.80;99480.00;;;;346600;28;91138;-93
2022/10/26 00:14:08;;;;;;;;;;;20.70;98.90;20.80;99474.00;;;;347458;28;83549;-93
2022/10/26 00:14:20;;;;;;;;;;;20.70;98.70;20.80;99474.00;;;;345559;28;90412;-92
2022/10/26 00:14:31;;;;;;;;;;;20.70;98.80;20.80;99480.00;;;;346158;28;83326;-92
2022/10/26 00:14:43;;;;;;;;;;;20.70;99.00;20.80;99482.00;;;;344085;28;91480;-92
2022/10/26 00:14:55;;;;;;;;;;;20.70;99.00;20.80;99484.00;;;;346678;28;82546;-92
2022/10/26 00:15:07;;;;;;;;;;;20.70;98.80;20.80;99481.00;;;;346235;28;90905;-92
2022/10/26 00:15:19;;;;;;;;;;;20.70;98.90;20.80;99473.00;;;;346454;28;83448;-92
2022/10/26 00:15:31;;;;;;;;;;;20.70;98.70;20.80;99472.00;;;;346419;28;87931;-92
2022/10/26 00:15:43;;;;;;;;;;;20.70;98.70;20.80;99475.00;;;;348056;28;82496;-92
2022/10/26 00:15:55;;;;;;;;;;;20.70;98.60;20.90;99474.00;;;;347253;28;90802;-92
2022/10/26 00:16:25;;;;;;;;;;;20.70;98.70;20.90;99474.00;;;;346484;28;83514;-92
2022/10/26 00:16:37;;;;;;;;;;;20.70;98.50;20.80;99474.00;;;;344795;28;90049;-92
2022/10/26 00:16:49;;;;;;;;;;;20.70;98.60;20.80;99472.00;;;;343826;28;82647;-92
2022/10/26 00:17:01;;;;;;;;;;;20.70;98.50;20.80;99465.00;;;;346939;28;91450;-91
2022/10/26 00:17:13;;;;;;;;;;;20.70;98.50;20.90;99467.00;;;;346740;28;83349;-92
2022/10/26 00:17:25;;;;;;;;;;;20.70;98.20;20.90;99476.00;;;;341882;28;90557;-91
2022/10/26 00:17:36;;;;;;;;;;;20.70;98.20;20.80;99468.00;;;;348008;28;82541;-93
2022/10/26 00:17:49;;;;;;;;;;;20.70;98.10;20.90;99463.00;;;;346386;28;87933;-93
2022/10/26 00:18:01;;;;;;;;;;;20.70;98.10;20.90;99466.00;;;;343928;28;83416;-93
2022/10/26 00:18:13;;;;;;;;;;;20.70;98.20;20.90;99469.00;;;;344815;28;91177;-93
2022/10/26 00:18:25;;;;;;;;;;;20.70;98.40;20.90;99468.00;;;;343867;28;83466;-93
2022/10/26 00:18:37;;;;;;;;;;;20.70;98.20;20.90;99468.00;;;;343334;28;90334;-91
2022/10/26 00:18:49;;;;;;;;;;;20.70;98.40;20.90;99456.00;;;;345329;28;83364;-92
2022/10/26 00:19:01;;;;;;;;;;;20.70;98.60;20.90;99467.00;;;;347568;28;90349;-94
2022/10/26 00:19:13;;;;;;;;;;;20.70;98.60;21.00;99466.00;;;;343894;28;83346;-93
2022/10/26 00:19:24;;;;;;;;;;;20.70;98.10;21.00;99464.00;;;;344610;28;91725;-92
2022/10/26 00:19:37;;;;;;;;;;;20.80;98.00;20.90;99466.00;;;;346834;28;82414;-92
2022/10/26 00:19:49;;;;;;;;;;;20.80;98.10;20.90;99474.00;;;;342164;28;90185;-93
2022/10/26 00:20:01;;;;;;;;;;;20.80;98.10;20.90;99472.00;;;;347563;28;82637;-92
2022/10/26 00:20:13;;;;;;;;;;;20.80;98.10;21.00;99483.00;;;;346334;28;91585;-92
2022/10/26 00:20:25;;;;;;;;;;;20.80;98.20;20.90;99473.00;;;;345298;28;83478;-93
2022/10/26 00:20:37;;;;;;;;;;;20.80;98.30;20.90;99487.00;;;;346262;28;91901;-92
2022/10/26 00:20:49;;;;;;;;;;;20.70;98.30;20.90;99486.00;;;;345324;28;83500;-92
2022/10/26 00:21:04;;;;;;;;;;;20.80;98.30;21.00;99477.00;;;;345818;28;89652;-92
2022/10/26 00:21:17;;;;;;;;;;;20.80;98.10;21.00;99481.00;;;;348121;28;82515;-93
2022/10/26 00:21:29;;;;;;;;;;;20.80;97.90;21.00;99482.00;;;;344375;28;92416;-92
2022/10/26 00:21:40;;;;;;;;;;;20.80;98.00;21.00;99483.00;;;;343902;28;82441;-92
2022/10/26 00:21:52;;;;;;;;;;;20.80;98.00;21.00;99486.00;;;;346774;28;90214;-93
2022/10/26 00:22:04;;;;;;;;;;;20.80;97.90;21.00;99491.00;;;;345976;28;83527;-92
2022/10/26 00:22:16;;;;;;;;;;;20.80;97.90;21.00;99484.00;;;;346125;28;90175;-93
2022/10/26 00:22:28;;;;;;;;;;;20.80;97.80;21.00;99492.00;;;;340179;28;82507;-92
2022/10/26 00:22:40;;;;;;;;;;;20.80;97.70;21.00;99498.00;;;;344750;28;90561;-92
2022/10/26 00:22:51;;;;;;;;;;;20.80;97.80;21.00;99494.00;;;;342610;28;83416;-92
2022/10/26 00:23:03;;;;;;;;;;;20.80;97.90;21.00;99492.00;;;;342205;28;91104;-93
2022/10/26 00:23:16;;;;;;;;;;;20.80;97.90;21.00;99502.00;;;;339584;28;82486;-93
2022/10/26 00:23:28;;;;;;;;;;;20.80;98.00;21.10;99507.00;;;;339355;28;92678;-92
2022/10/26 00:23:40;;;;;;;;;;;20.80;97.50;21.10;99508.00;;;;342657;28;82551;-93
2022/10/26 00:23:51;;;;;;;;;;;20.80;97.60;21.00;99505.00;;;;344893;28;92524;-93
2022/10/26 00:24:03;;;;;;;;;;;20.80;97.70;21.00;99510.00;;;;345135;28;82590;-93
2022/10/26 00:24:15;;;;;;;;;;;20.80;97.80;21.10;99510.00;;;;343514;28;92088;-93
2022/10/26 00:24:27;;;;;;;;;;;20.90;97.80;21.20;99492.00;;;;346634;28;83226;-93
2022/10/26 00:24:39;;;;;;;;;;;20.90;96.80;21.30;99501.00;;;;344703;28;92238;-92
2022/10/26 00:24:51;;;;;;;;;;;20.90;96.80;21.20;99501.00;;;;345549;28;83027;-93
2022/10/26 00:25:07;;;;;;;;;;;20.90;97.00;21.20;99499.00;;;;344668;28;89460;-94
2022/10/26 00:25:20;;;;;;;;;;;20.90;97.10;21.20;99505.00;;;;342668;28;82742;-93
2022/10/26 00:25:32;;;;;;;;;;;20.90;97.10;21.10;99506.00;;;;345632;28;88892;-93
2022/10/26 00:25:44;;;;;;;;;;;20.90;97.20;21.10;99497.00;;;;347398;28;83494;-92
2022/10/26 00:25:56;;;;;;;;;;;20.90;97.20;21.10;99505.00;;;;345284;28;91802;-93
2022/10/26 00:26:08;;;;;;;;;;;20.90;97.30;21.10;99504.00;;;;343246;28;83488;-92
2022/10/26 00:26:19;;;;;;;;;;;20.90;97.20;21.10;99497.00;;;;345698;28;89808;-93
2022/10/26 00:26:31;;;;;;;;;;;20.90;97.30;21.10;99508.00;;;;343221;28;83531;-93
2022/10/26 00:26:43;;;;;;;;;;;20.90;97.40;21.10;99504.00;;;;345266;28;91232;-93
2022/10/26 00:26:54;;;;;;;;;;;20.90;97.40;21.00;99511.00;;;;346078;28;82533;-93
2022/10/26 00:27:06;;;;;;;;;;;20.90;97.50;21.00;99502.00;;;;346833;28;91310;-92
2022/10/26 00:27:18;;;;;;;;;;;20.90;97.40;21.00;99503.00;;;;343351;28;83424;-93
2022/10/26 00:27:31;;;;;;;;;;;20.90;97.60;21.00;99498.00;;;;342674;28;92382;-92
2022/10/26 00:27:42;;;;;;;;;;;20.90;98.00;21.00;99504.00;;;;343335;28;82591;-92
2022/10/26 00:27:54;;;;;;;;;;;20.90;98.00;21.00;99503.00;;;;344312;28;91017;-91
2022/10/26 00:28:06;;;;;;;;;;;20.90;97.90;21.00;99501.00;;;;344588;28;83577;-93
2022/10/26 00:28:17;;;;;;;;;;;20.90;98.00;20.90;99504.00;;;;345429;28;91695;-93
2022/10/26 00:28:29;;;;;;;;;;;20.90;97.80;21.00;99501.00;;;;344691;28;83411;-92
2022/10/26 00:28:41;;;;;;;;;;;20.90;97.80;21.00;99495.00;;;;342720;28;90658;-93
2022/10/26 00:28:53;;;;;;;;;;;20.90;98.00;21.00;99496.00;;;;344807;28;84008;-93
2022/10/26 00:29:05;;;;;;;;;;;20.90;98.20;21.00;99491.00;;;;344406;28;89667;-93
2022/10/26 00:29:18;;;;;;;;;;;20.80;98.20;21.00;99494.00;;;;346560;28;82540;-93
2022/10/26 00:29:30;;;;;;;;;;;20.90;98.30;21.00;99492.00;;;;348424;27;93219;-92
2022/10/26 00:29:41;;;;;;;;;;;20.80;98.30;21.00;99489.00;;;;343592;28;83354;-93
2022/10/26 00:29:53;;;;;;;;;;;20.80;98.40;21.10;99484.00;;;;346003;28;90216;-93
2022/10/26 00:30:05;;;;;;;;;;;20.90;98.40;21.00;99494.00;;;;344964;28;83327;-93
2022/10/26 00:30:17;;;;;;;;;;;20.80;98.40;20.90;99486.00;;;;344668;28;88293;-92
2022/10/26 00:30:29;;;;;;;;;;;20.80;98.40;20.90;99493.00;;;;344980;28;83423;-93
2022/10/26 00:30:41;;;;;;;;;;;20.80;98.30;21.00;99486.00;;;;341939;28;90717;-93
2022/10/26 00:30:52;;;;;;;;;;;20.90;98.30;21.00;99489.00;;;;344979;28;82556;-92
2022/10/26 00:31:07;;;;;;;;;;;20.80;98.30;21.00;99490.00;;;;345862;28;91893;-92
2022/10/26 00:31:19;;;;;;;;;;;20.90;98.30;20.90;99486.00;;;;346104;28;82604;-93
2022/10/26 00:31:31;;;;;;;;;;;20.80;98.20;20.90;99484.00;;;;346207;28;88489;-92
2022/10/26 00:31:43;;;;;;;;;;;20.80;98.40;21.00;99485.00;;;;345045;28;83342;-93
2022/10/26 00:31:55;;;;;;;;;;;20.80;98.30;21.00;99475.00;;;;344325;28;91653;-93
2022/10/26 00:32:07;;;;;;;;;;;20.80;98.30;20.90;99480.00;;;;337038;28;82511;-93
2022/10/26 00:32:19;;;;;;;;;;;20.80;98.30;21.00;99486.00;;;;336445;28;90668;-93
2022/10/26 00:32:31;;;;;;;;;;;20.80;98.30;21.00;99485.00;;;;347754;28;82544;-93
2022/10/26 00:32:43;;;;;;;;;;;20.80;98.40;21.00;99485.00;;;;347471;27;90829;-93
2022/10/26 00:32:55;;;;;;;;;;;20.80;98.40;21.00;99483.00;;;;339388;28;83414;-92
2022/10/26 00:33:10;;;;;;;;;;;20.80;98.50;21.00;99496.00;;;;340373;28;91251;-92
2022/10/26 00:33:22;;;;;;;;;;;20.80;98.50;21.00;99491.00;;;;346565;28;82504;-93
2022/10/26 00:33:34;;;;;;;;;;;20.80;98.50;21.00;99506.00;;;;343297;28;91882;-92
2022/10/26 00:33:45;;;;;;;;;;;20.80;98.50;20.90;99500.00;;;;346392;28;82505;-93
2022/10/26 00:33:57;;;;;;;;;;;20.80;98.70;20.80;99499.00;;;;343315;28;89360;-93
2022/10/26 00:34:09;;;;;;;;;;;20.80;98.60;20.80;99493.00;;;;345085;28;82482;-93
2022/10/26 00:34:21;;;;;;;;;;;20.80;98.70;20.80;99506.00;;;;344588;28;90119;-93
2022/10/26 00:34:33;;;;;;;;;;;20.80;98.80;20.80;99505.00;;;;345080;28;83434;-93
2022/10/26 00:34:46;;;;;;;;;;;20.80;98.80;20.90;99496.00;;;;346303;28;90138;-92
2022/10/26 00:34:57;;;;;;;;;;;20.70;98.80;20.90;99498.00;;;;344009;28;82629;-93
2022/10/26 00:35:30;;;;;;;;;;;20.70;98.90;20.90;99502.00;;;;346067;28;89814;-93
2022/10/26 00:35:56;;;;;;;;;;;20.80;99.00;20.80;99508.00;;;;346509;28;82272;-92
2022/10/26 00:36:08;;;;;;;;;;;20.70;99.00;20.80;99507.00;;;;342820;28;91380;-92
2022/10/26 00:36:21;;;;;;;;;;;20.70;99.00;20.80;99501.00;;;;343729;28;83454;-93
2022/10/26 00:36:33;;;;;;;;;;;20.70;99.10;20.80;99503.00;;;;343008;28;91011;-92
2022/10/26 00:36:45;;;;;;;;;;;20.70;99.10;20.60;99507.00;;;;341111;28;83347;-92
2022/10/26 00:36:57;;;;;;;;;;;20.70;99.20;20.60;99492.00;;;;346107;28;91417;-92
2022/10/26 00:37:09;;;;;;;;;;;20.70;99.30;20.60;99499.00;;;;345205;28;82684;-92
2022/10/26 00:37:21;;;;;;;;;;;20.70;99.30;20.60;99498.00;;;;344874;28;90416;-93
2022/10/26 00:37:32;;;;;;;;;;;20.70;99.30;20.60;99503.00;;;;346570;28;82581;-93
2022/10/26 00:37:45;;;;;;;;;;;20.60;99.20;20.60;99498.00;;;;343364;28;90227;-92
2022/10/26 00:37:58;;;;;;;;;;;20.60;99.20;20.60;99506.00;;;;340898;28;82476;-93
2022/10/26 00:38:09;;;;;;;;;;;20.60;99.30;20.50;99504.00;;;;337431;28;91956;-93
2022/10/26 00:38:21;;;;;;;;;;;20.60;99.40;20.60;99493.00;;;;346517;28;83403;-93
2022/10/26 00:38:33;;;;;;;;;;;20.60;99.20;20.60;99493.00;;;;345970;28;91230;-92
2022/10/26 00:38:54;;;;;;;;;;;20.60;99.10;20.60;99493.00;;;;343777;28;83479;-93
2022/10/26 00:39:09;;;;;;;;;;;20.60;99.20;20.60;99498.00;;;;343407;28;90172;-94
2022/10/26 00:39:21;;;;;;;;;;;20.50;98.40;20.70;99498.00;;;;344560;28;82586;-92
2022/10/26 00:39:33;;;;;;;;;;;20.60;98.40;20.70;99494.00;;;;343485;28;87503;-94
2022/10/26 00:39:45;;;;;;;;;;;20.60;98.00;20.70;99494.00;;;;346494;28;82542;-92
2022/10/26 00:39:57;;;;;;;;;;;20.50;98.00;20.70;99490.00;;;;345914;28;91684;-92
2022/10/26 00:40:09;;;;;;;;;;;20.60;97.90;20.70;99490.00;;;;344936;28;82550;-93
2022/10/26 00:40:26;;;;;;;;;;;20.60;97.90;20.80;99491.00;;;;341974;28;92494;-93
2022/10/26 00:40:38;;;;;;;;;;;20.50;98.00;20.70;99493.00;;;;346606;28;83574;-93
2022/10/26 00:40:50;;;;;;;;;;;20.60;97.60;20.80;99491.00;;;;344695;28;91849;-93
2022/10/26 00:41:02;;;;;;;;;;;20.60;97.40;20.80;99494.00;;;;345307;28;82447;-93
2022/10/26 00:41:15;;;;;;;;;;;20.60;97.30;20.90;99491.00;;;;344757;28;91918;-93
2022/10/26 00:41:31;;;;;;;;;;;20.60;97.50;20.90;99498.00;;;;347981;28;83509;-92
2022/10/26 00:41:43;;;;;;;;;;;20.60;97.50;20.90;99500.00;;;;345825;28;91769;-93
2022/10/26 00:41:54;;;;;;;;;;;20.60;97.40;20.90;99495.00;;;;347992;27;82558;-93
2022/10/26 00:42:12;;;;;;;;;;;20.60;97.40;20.90;99500.00;;;;345990;28;90524;-93
2022/10/26 00:42:24;;;;;;;;;;;20.60;97.50;20.90;99500.00;;;;344938;28;82476;-93
2022/10/26 00:42:36;;;;;;;;;;;20.60;97.70;20.80;99503.00;;;;345614;28;91806;-92
2022/10/26 00:42:47;;;;;;;;;;;20.60;97.70;20.80;99500.00;;;;345117;28;82456;-91
2022/10/26 00:43:03;;;;;;;;;;;20.60;97.80;20.80;99502.00;;;;347548;28;91275;-93
2022/10/26 00:43:32;;;;;;;;;;;20.60;97.80;20.80;99503.00;;;;345791;28;82473;-93
2022/10/26 00:43:44;;;;;;;;;;;20.60;97.90;20.60;99500.00;;;;343115;28;90612;-92
2022/10/26 00:43:56;;;;;;;;;;;20.60;98.10;20.70;99501.00;;;;345726;28;82601;-92
2022/10/26 00:44:45;;;;;;;;;;;20.60;98.00;21.00;99511.00;;;;344786;28;91163;-92
2022/10/26 00:45:04;;;;;;;;;;;20.60;97.90;20.90;99504.00;;;;343654;28;83628;-93
2022/10/26 00:45:26;;;;;;;;;;;20.70;97.00;21.00;99507.00;;;;343212;28;91257;-92
2022/10/26 00:45:38;;;;;;;;;;;20.70;96.70;20.90;99505.00;;;;343550;28;83552;-92
2022/10/26 00:45:50;;;;;;;;;;;20.70;96.90;20.90;99508.00;;;;344482;28;91009;-92
2022/10/26 00:46:02;;;;;;;;;;;20.70;96.90;20.90;99517.00;;;;345106;28;83462;-92
2022/10/26 00:46:17;;;;;;;;;;;20.70;96.80;20.90;99509.00;;;;344734;28;91277;-93
2022/10/26 00:46:33;;;;;;;;;;;20.70;97.00;20.80;99517.00;;;;345019;28;83533;-93
2022/10/26 00:46:45;;;;;;;;;;;20.70;97.10;20.80;99513.00;;;;348272;27;90648;-93
2022/10/26 00:46:57;;;;;;;;;;;20.70;97.10;20.80;99518.00;;;;345829;28;83600;-93
2022/10/26 00:47:09;;;;;;;;;;;20.70;97.20;20.80;99512.00;;;;341582;28;91638;-93
2022/10/26 00:47:40;;;;;;;;;;;20.70;97.20;20.80;99512.00;;;;345626;28;82493;-93
2022/10/26 00:47:54;;;;;;;;;;;20.70;97.20;20.70;99512.00;;;;345685;28;90450;-93
2022/10/26 00:48:08;;;;;;;;;;;20.60;97.30;20.80;99510.00;;;;346065;28;83472;-93
2022/10/26 00:48:25;;;;;;;;;;;20.60;97.40;20.80;99520.00;;;;345399;28;91213;-93
2022/10/26 00:48:40;;;;;;;;;;;20.60;97.30;20.80;99513.00;;;;345966;28;83403;-94
2022/10/26 00:48:55;;;;;;;;;;;20.60;97.00;20.80;99515.00;;;;345535;28;89139;-93
2022/10/26 00:49:14;;;;;;;;;;;20.60;97.20;20.90;99503.00;;;;346100;28;82573;-92
2022/10/26 00:49:26;;;;;;;;;;;20.60;97.30;20.90;99500.00;;;;343482;28;90367;-93
2022/10/26 00:49:37;;;;;;;;;;;20.70;97.50;20.90;99513.00;;;;345943;28;82561;-93
2022/10/26 00:49:50;;;;;;;;;;;20.60;97.40;20.80;99510.00;;;;342989;28;90521;-93
2022/10/26 00:50:06;;;;;;;;;;;20.70;97.40;20.80;99511.00;;;;346017;28;82541;-93
2022/10/26 00:50:34;;;;;;;;;;;20.60;97.50;20.80;99511.00;;;;345808;28;90240;-93
2022/10/26 00:50:45;;;;;;;;;;;20.60;97.60;20.70;99509.00;;;;344634;28;82623;-92
2022/10/26 00:50:58;;;;;;;;;;;20.60;97.40;20.70;99502.00;;;;344210;28;92222;-93
2022/10/26 00:51:37;;;;;;;;;;;20.60;97.40;20.70;99510.00;;;;342115;28;83515;-92
2022/10/26 00:51:51;;;;;;;;;;;20.60;97.60;20.80;99511.00;;;;340976;28;87912;-92
2022/10/26 00:52:03;;;;;;;;;;;20.60;97.80;20.80;99515.00;;;;342115;28;82586;-93
2022/10/26 00:52:15;;;;;;;;;;;20.60;97.70;20.80;99506.00;;;;344142;28;90572;-92
2022/10/26 00:52:27;;;;;;;;;;;20.60;97.80;20.80;99502.00;;;;345850;28;83387;-92
2022/10/26 00:52:38;;;;;;;;;;;20.60;97.90;20.80;99508.00;;;;342992;28;91332;-93
2022/10/26 00:52:52;;;;;;;;;;;20.60;97.60;20.80;99510.00;;;;344805;28;82456;-93
2022/10/26 00:53:04;;;;;;;;;;;20.60;97.20;20.80;99505.00;;;;344459;28;89979;-92
2022/10/26 00:53:16;;;;;;;;;;;20.60;97.10;20.90;99506.00;;;;345653;28;83479;-92
2022/10/26 00:53:27;;;;;;;;;;;20.60;97.30;20.90;99500.00;;;;346880;28;91884;-92
2022/10/26 00:53:39;;;;;;;;;;;20.60;97.40;20.90;99509.00;;;;347492;28;83357;-92
2022/10/26 00:53:51;;;;;;;;;;;20.60;97.40;20.80;99506.00;;;;345673;28;90467;-92
2022/10/26 00:54:05;;;;;;;;;;;20.60;97.50;20.80;99509.00;;;;344687;28;83212;-93
2022/10/26 00:54:17;;;;;;;;;;;20.60;97.50;20.80;99514.00;;;;345551;28;90084;-92
2022/10/26 00:54:29;;;;;;;;;;;20.60;97.70;20.80;99503.00;;;;346097;28;82533;-92
2022/10/26 00:54:40;;;;;;;;;;;20.60;97.80;20.80;99506.00;;;;344112;28;91268;-92
2022/10/26 00:54:53;;;;;;;;;;;20.60;97.80;20.70;99511.00;;;;343396;28;82485;-92
2022/10/26 00:55:05;;;;;;;;;;;20.60;97.80;20.70;99505.00;;;;343960;28;90938;-93
2022/10/26 00:55:20;;;;;;;;;;;20.60;97.90;20.70;99501.00;;;;343302;28;83426;-92
2022/10/26 00:55:34;;;;;;;;;;;20.60;97.80;20.70;99498.00;;;;341371;28;92219;-92
2022/10/26 00:55:48;;;;;;;;;;;20.60;97.60;20.70;99495.00;;;;341974;28;83570;-91
2022/10/26 00:55:59;;;;;;;;;;;20.60;97.70;20.80;99489.00;;;;342715;28;89765;-92
2022/10/26 00:56:11;;;;;;;;;;;20.60;97.60;20.80;99489.00;;;;343432;28;83422;-92
2022/10/26 00:56:23;;;;;;;;;;;20.50;97.40;20.70;99500.00;;;;344252;28;90130;-92
2022/10/26 00:56:34;;;;;;;;;;;20.60;97.30;20.70;99500.00;;;;344637;28;83339;-92
2022/10/26 00:56:48;;;;;;;;;;;20.60;97.40;20.70;99494.00;;;;345702;28;89261;-92
2022/10/26 00:57:00;;;;;;;;;;;20.60;97.40;20.70;99488.00;;;;343127;28;83579;-92
2022/10/26 00:57:13;;;;;;;;;;;20.60;97.50;20.80;99493.00;;;;346945;28;90885;-92
2022/10/26 00:57:25;;;;;;;;;;;20.50;97.70;20.70;99501.00;;;;340487;28;83475;-91
2022/10/26 00:57:37;;;;;;;;;;;20.50;97.60;20.80;99495.00;;;;337455;28;92034;-92
2022/10/26 00:57:48;;;;;;;;;;;20.50;97.80;20.80;99498.00;;;;344618;28;83446;-92
2022/10/26 00:58:01;;;;;;;;;;;20.50;97.90;20.70;99506.00;;;;344294;28;91348;-92
2022/10/26 00:58:12;;;;;;;;;;;20.50;97.90;20.60;99499.00;;;;343443;28;83405;-92
2022/10/26 00:58:24;;;;;;;;;;;20.50;97.90;20.60;99499.00;;;;342954;28;90434;-91
2022/10/26 00:58:36;;;;;;;;;;;20.50;97.90;20.70;99498.00;;;;347645;27;82486;-92
2022/10/26 00:58:48;;;;;;;;;;;20.50;98.00;20.70;99500.00;;;;344242;28;91145;-92
2022/10/26 00:59:05;;;;;;;;;;;20.50;98.00;20.70;99501.00;;;;344733;28;83495;-92
2022/10/26 00:59:16;;;;;;;;;;;20.50;98.10;20.70;99510.00;;;;342982;28;90574;-92
2022/10/26 00:59:28;;;;;;;;;;;20.50;98.10;20.60;99502.00;;;;345967;28;83893;-92
2022/10/26 00:59:41;;;;;;;;;;;20.50;98.10;20.60;99502.00;;;;343995;28;93502;-92
2022/10/26 00:59:53;;;;;;;;;;;20.50;98.20;20.60;99498.00;;;;346158;28;82531;-92
2022/10/26 01:00:06;;;;;;;;;;;20.50;98.20;20.60;99505.00;;;;345007;28;90712;-92
2022/10/26 01:00:18;;;;;;;;;;;20.50;98.20;20.50;99502.00;;;;344671;28;83468;-92
2022/10/26 01:00:29;;;;;;;;;;;20.50;98.10;20.50;99496.00;;;;342953;28;89843;-93
2022/10/26 01:00:41;;;;;;;;;;;20.50;97.90;20.60;99500.00;;;;344660;28;83148;-92
2022/10/26 01:00:53;;;;;;;;;;;20.50;97.90;20.60;99507.00;;;;344144;28;91889;-92
2022/10/26 01:01:05;;;;;;;;;;;20.40;97.80;20.60;99505.00;;;;345901;28;83285;-92
2022/10/26 01:01:17;;;;;;;;;;;20.50;97.50;20.60;99498.00;;;;342960;28;91156;-92
2022/10/26 01:01:29;;;;;;;;;;;20.40;97.30;20.60;99505.00;;;;343341;28;83164;-92
2022/10/26 01:01:43;;;;;;;;;;;20.40;97.30;20.50;99501.00;;;;342970;28;91690;-92
2022/10/26 01:01:54;;;;;;;;;;;20.40;97.40;20.60;99504.00;;;;342097;28;83536;-93
2022/10/26 01:02:06;;;;;;;;;;;20.40;97.60;20.60;99507.00;;;;337428;28;90849;-92
2022/10/26 01:02:18;;;;;;;;;;;20.40;97.80;20.60;99504.00;;;;344364;28;83465;-92
2022/10/26 01:02:30;;;;;;;;;;;20.40;97.90;20.60;99500.00;;;;344246;28;91196;-93
2022/10/26 01:02:41;;;;;;;;;;;20.40;97.90;20.60;99502.00;;;;346002;28;83406;-92
2022/10/26 01:02:54;;;;;;;;;;;20.40;97.80;20.50;99500.00;;;;344041;28;90636;-92
2022/10/26 01:03:06;;;;;;;;;;;20.40;97.80;20.50;99511.00;;;;345059;28;83033;-92
2022/10/26 01:03:18;;;;;;;;;;;20.40;97.90;20.50;99508.00;;;;344858;28;90402;-92
2022/10/26 01:03:30;;;;;;;;;;;20.40;97.90;20.40;99504.00;;;;341916;28;83487;-92
2022/10/26 01:03:42;;;;;;;;;;;20.40;98.00;20.40;99505.00;;;;342896;28;93232;-92
2022/10/26 01:03:54;;;;;;;;;;;20.40;98.10;20.40;99509.00;;;;346028;28;82531;-93
2022/10/26 01:04:06;;;;;;;;;;;20.40;98.20;20.40;99505.00;;;;344258;28;90203;-92
2022/10/26 01:04:18;;;;;;;;;;;20.40;98.10;20.50;99507.00;;;;344828;28;83424;-92